Time;durP1;ratioP1;P1;durP2;ratioP2;P2;SDS_P1;SDS_P2;PMS_P1;PMS_P2;Temp;Humidity;BMP_temperature;BMP_pressure;BME280_temperature;BME280_humidity;BME280_pressure;Samples;Min_cycle;Max_cycle;Signal;HPM_P1;HPM_P2
2021/08/22 00:00:16;;;;;;;6.20;5.53;;;18.80;99.90;;;;;;5055698;28;20919;-63
2021/08/22 00:02:41;;;;;;;9.20;5.40;;;18.90;99.90;;;;;;5055671;28;20598;-62
2021/08/22 00:05:08;;;;;;;6.50;5.70;;;18.90;99.90;;;;;;5055668;28;20412;-63
2021/08/22 00:07:34;;;;;;;7.03;6.20;;;18.90;99.90;;;;;;5055460;28;20177;-63
2021/08/22 00:10:00;;;;;;;6.00;5.40;;;19.00;99.90;;;;;;5055290;28;20473;-63
2021/08/22 00:12:26;;;;;;;5.67;5.20;;;19.00;99.90;;;;;;5055209;28;20445;-63
2021/08/22 00:14:52;;;;;;;6.30;5.00;;;19.10;99.90;;;;;;5054271;28;20416;-62
2021/08/22 00:17:18;;;;;;;5.57;5.17;;;19.20;99.90;;;;;;5055048;28;20170;-63
2021/08/22 00:19:44;;;;;;;5.57;5.07;;;19.20;99.90;;;;;;5055436;28;20515;-63
2021/08/22 00:22:10;;;;;;;9.17;5.90;;;19.30;99.90;;;;;;5055532;28;20466;-63
2021/08/22 00:24:36;;;;;;;5.53;5.03;;;19.30;99.90;;;;;;5066039;28;20418;-63
2021/08/22 00:27:01;;;;;;;7.60;6.27;;;19.40;99.90;;;;;;5074928;28;20173;-62
2021/08/22 00:29:27;;;;;;;6.60;5.83;;;19.40;99.90;;;;;;5074970;28;20781;-62
2021/08/22 00:31:53;;;;;;;7.20;5.97;;;19.50;99.90;;;;;;5075024;28;20196;-61
2021/08/22 00:34:18;;;;;;;9.80;5.30;;;19.40;99.90;;;;;;5075173;28;20185;-61
2021/08/22 00:36:44;;;;;;;3.33;2.70;;;19.30;99.90;;;;;;5074729;28;20178;-62
2021/08/22 00:39:09;;;;;;;1.90;1.80;;;18.90;99.90;;;;;;5074501;28;20210;-62
2021/08/22 00:41:37;;;;;;;6.20;2.40;;;18.50;99.90;;;;;;5072746;28;20213;-62
2021/08/22 00:44:02;;;;;;;3.23;2.13;;;18.20;99.90;;;;;;5074853;28;20513;-63
2021/08/22 00:46:39;;;;;;;3.37;1.40;;;17.90;99.90;;;;;;5074931;28;20414;-61
2021/08/22 00:49:05;;;;;;;2.60;2.10;;;17.60;99.90;;;;;;5073616;28;20212;-62
2021/08/22 00:51:31;;;;;;;3.50;1.90;;;17.50;99.90;;;;;;5074847;28;20909;-62
2021/08/22 00:53:57;;;;;;;2.13;1.90;;;17.40;99.90;;;;;;5064572;28;20477;-63
2021/08/22 00:56:22;;;;;;;3.97;2.40;;;17.30;99.90;;;;;;5054739;28;20435;-63
2021/08/22 00:58:48;;;;;;;2.80;2.43;;;17.30;99.90;;;;;;5052832;28;20198;-62
2021/08/22 01:01:22;;;;;;;3.60;1.90;;;17.20;99.90;;;;;;5053374;28;20280;-63
2021/08/22 01:04:18;;;;;;;3.33;1.90;;;17.20;99.90;;;;;;5054634;28;20176;-64
2021/08/22 01:06:58;;;;;;;2.53;1.60;;;17.20;99.90;;;;;;5049866;28;20787;-63
2021/08/22 01:09:36;;;;;;;2.77;2.30;;;17.10;99.90;;;;;;5069619;28;20523;-63
2021/08/22 01:12:06;;;;;;;2.30;1.93;;;17.10;99.90;;;;;;5074612;28;20422;-62
2021/08/22 01:14:39;;;;;;;1.87;1.70;;;17.10;99.90;;;;;;5074248;28;20443;-63
2021/08/22 01:17:04;;;;;;;2.90;2.27;;;17.10;99.90;;;;;;5074232;28;20424;-64
2021/08/22 01:19:50;;;;;;;2.20;1.77;;;17.00;99.90;;;;;;5074304;28;20801;-63
2021/08/22 01:22:18;;;;;;;1.90;1.80;;;16.90;99.90;;;;;;5073261;28;20231;-64
2021/08/22 01:24:45;;;;;;;2.37;2.17;;;16.80;99.90;;;;;;5074204;28;20409;-64
2021/08/22 01:27:13;;;;;;;2.43;1.60;;;16.70;99.90;;;;;;5073661;28;20835;-65
2021/08/22 01:29:46;;;;;;;3.60;1.80;;;16.60;99.90;;;;;;5073811;28;20466;-61
2021/08/22 01:32:13;;;;;;;3.90;2.07;;;16.60;99.90;;;;;;5072554;28;20443;-62
2021/08/22 01:34:40;;;;;;;5.03;2.37;;;16.50;99.90;;;;;;5074009;28;20502;-61
2021/08/22 01:37:06;;;;;;;1.67;1.57;;;16.50;99.90;;;;;;5072830;28;20415;-62
2021/08/22 01:39:34;;;;;;;3.07;2.00;;;16.50;99.90;;;;;;5053844;28;20436;-62
2021/08/22 01:42:00;;;;;;;2.00;1.80;;;16.60;99.90;;;;;;5061594;28;20512;-62
2021/08/22 01:44:27;;;;;;;1.80;1.70;;;16.60;99.90;;;;;;5073423;28;20419;-61
2021/08/22 01:46:53;;;;;;;1.60;1.50;;;16.50;99.90;;;;;;5073279;28;20430;-62
2021/08/22 01:49:20;;;;;;;1.90;1.77;;;16.50;99.90;;;;;;5073695;28;20519;-62
2021/08/22 01:51:46;;;;;;;1.70;1.60;;;16.40;99.90;;;;;;5073778;28;20414;-62
2021/08/22 01:54:12;;;;;;;1.83;1.73;;;16.50;99.90;;;;;;5073593;28;20415;-61
2021/08/22 01:56:39;;;;;;;2.50;2.30;;;16.50;99.90;;;;;;5073179;28;20421;-61
2021/08/22 01:59:06;;;;;;;2.47;2.27;;;16.50;99.90;;;;;;5055007;28;20410;-62
2021/08/22 02:01:33;;;;;;;2.97;2.27;;;16.40;99.90;;;;;;5053883;28;20501;-63
2021/08/22 02:04:47;;;;;;;2.03;1.93;;;16.40;99.90;;;;;;5053580;28;20378;-62
2021/08/22 02:07:17;;;;;;;2.63;2.00;;;16.40;99.90;;;;;;5030910;28;20910;-63
2021/08/22 02:10:02;;;;;;;2.37;2.20;;;16.40;99.90;;;;;;5031399;28;20405;-61
2021/08/22 02:12:29;;;;;;;2.47;2.27;;;16.40;99.90;;;;;;5055975;28;20495;-61
2021/08/22 02:15:10;;;;;;;2.77;2.43;;;16.40;99.90;;;;;;5073467;28;20434;-63
2021/08/22 02:17:48;;;;;;;2.63;2.20;;;16.40;99.90;;;;;;5073173;28;20395;-63
2021/08/22 02:20:15;;;;;;;3.70;2.13;;;16.40;99.90;;;;;;5072114;28;20514;-63
2021/08/22 02:22:42;;;;;;;4.40;2.10;;;16.40;99.90;;;;;;5072024;28;20481;-62
2021/08/22 02:25:09;;;;;;;3.67;3.43;;;16.50;99.90;;;;;;5072164;28;20541;-63
2021/08/22 02:27:36;;;;;;;2.03;1.93;;;16.50;99.90;;;;;;5072146;28;21213;-64
2021/08/22 02:30:03;;;;;;;2.93;2.43;;;16.50;99.90;;;;;;5073227;28;20516;-63
2021/08/22 02:32:38;;;;;;;2.30;2.10;;;16.60;99.90;;;;;;5071844;28;20960;-62
2021/08/22 02:35:04;;;;;;;3.20;2.80;;;16.60;99.90;;;;;;5075155;28;20757;-64
2021/08/22 02:37:30;;;;;;;2.90;2.70;;;16.70;99.90;;;;;;5076934;28;20389;-62
2021/08/22 02:39:56;;;;;;;2.90;2.70;;;16.60;99.90;;;;;;5077272;28;20426;-62
2021/08/22 02:42:22;;;;;;;2.50;2.30;;;16.60;99.90;;;;;;5075555;28;20459;-62
2021/08/22 02:44:48;;;;;;;2.80;2.60;;;16.60;99.90;;;;;;5077480;28;20378;-62
2021/08/22 02:47:15;;;;;;;2.77;2.57;;;16.70;99.90;;;;;;5076741;28;20415;-63
2021/08/22 02:49:42;;;;;;;2.90;2.50;;;16.60;99.90;;;;;;5077128;28;20193;-63
2021/08/22 02:52:11;;;;;;;3.17;2.50;;;16.60;99.90;;;;;;5077059;28;20461;-63
2021/08/22 02:54:43;;;;;;;2.70;2.43;;;16.60;99.90;;;;;;5076770;28;20401;-62
2021/08/22 02:57:09;;;;;;;3.40;3.20;;;16.70;99.90;;;;;;5061814;28;20423;-62
2021/08/22 02:59:34;;;;;;;6.20;2.73;;;16.60;99.90;;;;;;5056743;28;20944;-63
2021/08/22 03:02:00;;;;;;;2.13;1.93;;;16.60;99.90;;;;;;5056826;28;20601;-62
2021/08/22 03:04:26;;;;;;;2.90;2.70;;;16.60;99.90;;;;;;5056843;28;20282;-61
2021/08/22 03:06:52;;;;;;;2.73;2.53;;;16.60;99.90;;;;;;5056495;28;20412;-62
2021/08/22 03:09:20;;;;;;;3.83;2.60;;;16.60;99.90;;;;;;5056543;28;20675;-63
2021/08/22 03:11:46;;;;;;;2.53;2.33;;;16.60;99.90;;;;;;5056644;28;20795;-63
2021/08/22 03:14:15;;;;;;;4.97;2.90;;;16.60;99.90;;;;;;5056823;28;20408;-62
2021/08/22 03:16:40;;;;;;;3.97;3.60;;;16.60;99.90;;;;;;5056293;28;20173;-62
2021/08/22 03:19:06;;;;;;;3.80;3.50;;;16.60;99.90;;;;;;5056398;28;20794;-63
2021/08/22 03:21:35;;;;;;;2.67;2.47;;;16.60;99.90;;;;;;5056449;28;20201;-63
2021/08/22 03:24:01;;;;;;;3.37;3.00;;;16.60;99.90;;;;;;5056829;28;20173;-63
2021/08/22 03:26:26;;;;;;;3.03;2.83;;;16.60;99.90;;;;;;5058576;28;20419;-63
2021/08/22 03:28:52;;;;;;;4.07;3.40;;;16.60;99.90;;;;;;5074593;28;20566;-63
2021/08/22 03:31:18;;;;;;;3.00;2.70;;;16.60;99.90;;;;;;5076099;28;20267;-62
2021/08/22 03:33:44;;;;;;;3.13;2.83;;;16.60;99.90;;;;;;5076342;28;20418;-62
2021/08/22 03:36:12;;;;;;;3.90;3.60;;;16.60;99.90;;;;;;5076266;28;20180;-62
2021/08/22 03:38:38;;;;;;;2.70;2.47;;;16.60;99.90;;;;;;5075644;28;20197;-62
2021/08/22 03:41:03;;;;;;;3.47;3.23;;;16.70;99.90;;;;;;5075929;28;20816;-62
2021/08/22 03:43:29;;;;;;;4.70;2.93;;;16.70;99.90;;;;;;5076119;28;20184;-63
2021/08/22 03:45:55;;;;;;;5.40;2.70;;;16.70;99.90;;;;;;5075497;28;20519;-62
2021/08/22 03:48:21;;;;;;;3.13;2.83;;;16.70;99.90;;;;;;5075536;28;20431;-63
2021/08/22 03:50:46;;;;;;;2.97;2.47;;;16.70;99.90;;;;;;5076055;28;20168;-62
2021/08/22 03:53:12;;;;;;;3.13;2.70;;;16.70;99.90;;;;;;5075841;28;20245;-63
2021/08/22 03:55:38;;;;;;;3.07;2.80;;;16.80;99.90;;;;;;5066660;28;20173;-62
2021/08/22 03:58:03;;;;;;;3.77;3.33;;;16.80;99.90;;;;;;5054417;28;20671;-62
2021/08/22 04:00:29;;;;;;;3.20;2.70;;;16.80;99.90;;;;;;5055854;28;20571;-63
2021/08/22 04:02:54;;;;;;;3.10;2.67;;;16.80;99.90;;;;;;5055693;28;20240;-62
2021/08/22 04:05:20;;;;;;;4.27;2.43;;;16.70;99.90;;;;;;5055583;28;20559;-62
2021/08/22 04:07:49;;;;;;;3.20;3.00;;;16.70;99.90;;;;;;5055325;28;20179;-62
2021/08/22 04:10:16;;;;;;;2.50;2.30;;;16.70;99.90;;;;;;5063441;28;20168;-63
2021/08/22 04:12:42;;;;;;;4.40;3.13;;;16.70;99.90;;;;;;5075323;28;20827;-62
2021/08/22 04:15:08;;;;;;;4.30;2.90;;;16.70;99.90;;;;;;5075603;28;20924;-63
2021/08/22 04:17:34;;;;;;;3.00;2.67;;;16.60;99.90;;;;;;5075169;28;20929;-61
2021/08/22 04:19:59;;;;;;;4.17;3.10;;;16.60;99.90;;;;;;5075471;28;20423;-63
2021/08/22 04:22:25;;;;;;;2.50;2.30;;;16.60;99.90;;;;;;5073967;28;20211;-62
2021/08/22 04:24:51;;;;;;;2.57;2.33;;;16.60;99.90;;;;;;5068549;28;20170;-62
2021/08/22 04:27:16;;;;;;;3.77;3.17;;;16.60;99.90;;;;;;5054885;28;20169;-63
2021/08/22 04:29:42;;;;;;;3.30;2.80;;;16.60;99.90;;;;;;5055134;28;20185;-61
2021/08/22 04:32:09;;;;;;;3.80;2.93;;;16.60;99.90;;;;;;5055096;28;20189;-63
2021/08/22 04:34:35;;;;;;;3.00;2.70;;;16.60;99.90;;;;;;5055243;28;20162;-62
2021/08/22 04:37:00;;;;;;;3.23;2.90;;;16.60;99.90;;;;;;5054887;28;20408;-63
2021/08/22 04:39:26;;;;;;;3.70;3.10;;;16.60;99.90;;;;;;5054979;28;20197;-62
2021/08/22 04:41:52;;;;;;;2.93;2.30;;;16.70;99.90;;;;;;5055096;28;20659;-63
2021/08/22 04:44:17;;;;;;;3.00;2.53;;;16.70;99.90;;;;;;5055024;28;20193;-62
2021/08/22 04:46:44;;;;;;;2.50;2.30;;;16.70;99.90;;;;;;5053306;28;20181;-62
2021/08/22 04:49:10;;;;;;;3.40;3.07;;;16.70;99.90;;;;;;5054897;28;20188;-65
2021/08/22 04:51:36;;;;;;;4.37;3.13;;;16.70;99.90;;;;;;5054747;28;20906;-62
2021/08/22 04:54:01;;;;;;;4.80;3.47;;;16.80;99.90;;;;;;5054781;28;20466;-62
2021/08/22 04:56:27;;;;;;;4.27;2.70;;;16.80;99.90;;;;;;5054704;28;20495;-63
2021/08/22 04:58:52;;;;;;;3.60;2.83;;;16.80;99.90;;;;;;5053313;28;20294;-63
2021/08/22 05:01:18;;;;;;;3.80;3.40;;;16.90;99.90;;;;;;5058865;28;20193;-62
2021/08/22 05:03:44;;;;;;;4.60;3.43;;;17.00;99.90;;;;;;5074429;28;20164;-63
2021/08/22 05:06:10;;;;;;;4.70;3.17;;;17.00;99.90;;;;;;5074528;28;20177;-62
2021/08/22 05:08:37;;;;;;;2.83;2.37;;;17.10;99.90;;;;;;5073914;28;20277;-64
2021/08/22 05:11:03;;;;;;;3.33;3.03;;;17.20;99.90;;;;;;5074463;28;20423;-62
2021/08/22 05:13:29;;;;;;;3.43;3.00;;;17.20;99.90;;;;;;5074449;28;20446;-63
2021/08/22 05:15:55;;;;;;;2.97;2.67;;;17.20;99.90;;;;;;5070869;28;20431;-62
2021/08/22 05:18:22;;;;;;;4.10;2.90;;;17.30;99.90;;;;;;5053909;28;20680;-62
2021/08/22 05:20:48;;;;;;;2.77;2.53;;;17.30;99.90;;;;;;5054230;28;20174;-63
2021/08/22 05:23:14;;;;;;;4.63;2.90;;;17.30;99.90;;;;;;5054115;28;20463;-63
2021/08/22 05:25:40;;;;;;;5.10;4.10;;;17.30;99.90;;;;;;5054107;28;20262;-63
2021/08/22 05:28:06;;;;;;;3.23;2.83;;;17.30;99.90;;;;;;5053671;28;20492;-62
2021/08/22 05:30:31;;;;;;;5.17;3.33;;;17.30;99.90;;;;;;5055421;28;20565;-63
2021/08/22 05:32:57;;;;;;;3.40;3.00;;;17.30;99.90;;;;;;5054210;28;20187;-64
2021/08/22 05:35:22;;;;;;;2.77;2.57;;;17.30;99.90;;;;;;5053848;28;20265;-63
2021/08/22 05:37:48;;;;;;;4.63;3.40;;;17.30;99.90;;;;;;5053566;28;20185;-62
2021/08/22 05:40:14;;;;;;;7.50;3.07;;;17.30;99.90;;;;;;5053949;28;20697;-63
2021/08/22 05:42:39;;;;;;;3.40;3.10;;;17.30;99.90;;;;;;5067189;28;20212;-61
2021/08/22 05:45:05;;;;;;;2.60;2.40;;;17.30;99.90;;;;;;5073885;28;20204;-63
2021/08/22 05:47:31;;;;;;;4.07;3.70;;;17.40;99.90;;;;;;5073207;28;20171;-63
2021/08/22 05:49:57;;;;;;;8.20;4.27;;;17.40;99.90;;;;;;5073545;28;20402;-63
2021/08/22 05:52:22;;;;;;;3.90;3.50;;;17.40;99.90;;;;;;5072351;28;20177;-63
2021/08/22 05:54:48;;;;;;;4.53;4.10;;;17.40;99.90;;;;;;5073626;28;20177;-62
2021/08/22 05:57:14;;;;;;;3.40;3.20;;;17.40;99.90;;;;;;5060789;28;20521;-63
2021/08/22 05:59:39;;;;;;;5.47;3.93;;;17.50;99.90;;;;;;5053384;28;20197;-62
2021/08/22 06:02:05;;;;;;;4.10;3.40;;;17.50;99.90;;;;;;5053164;28;20194;-62
2021/08/22 06:04:31;;;;;;;9.40;3.63;;;17.60;99.90;;;;;;5053608;28;20165;-62
2021/08/22 06:06:57;;;;;;;5.30;3.63;;;17.70;99.90;;;;;;5051804;28;20239;-63
2021/08/22 06:09:25;;;;;;;4.27;3.13;;;17.80;99.90;;;;;;5053086;28;20900;-62
2021/08/22 06:11:51;;;;;;;5.07;4.40;;;17.90;99.90;;;;;;5053300;28;20187;-61
2021/08/22 06:14:17;;;;;;;3.50;3.20;;;18.00;99.90;;;;;;5053404;28;20496;-61
2021/08/22 06:16:42;;;;;;;4.50;3.90;;;18.20;99.90;;;;;;5052948;28;20412;-62
2021/08/22 06:19:08;;;;;;;7.90;4.53;;;18.40;99.90;;;;;;5052954;28;20261;-62
2021/08/22 06:21:34;;;;;;;6.00;4.10;;;18.50;99.90;;;;;;5053029;28;20232;-62
2021/08/22 06:23:59;;;;;;;5.40;3.70;;;18.60;99.90;;;;;;5053278;28;20177;-63
2021/08/22 06:26:28;;;;;;;2.77;2.57;;;18.70;99.90;;;;;;5057549;28;20177;-62
2021/08/22 06:28:54;;;;;;;3.47;3.17;;;18.90;99.90;;;;;;5052577;28;20675;-64
2021/08/22 06:31:20;;;;;;;4.13;3.73;;;19.00;99.90;;;;;;5052967;28;20432;-62
2021/08/22 06:33:45;;;;;;;5.77;2.97;;;19.20;99.90;;;;;;5053079;28;20553;-63
2021/08/22 06:36:13;;;;;;;2.63;2.40;;;19.40;99.90;;;;;;5053086;28;20579;-62
2021/08/22 06:38:39;;;;;;;3.20;2.90;;;19.50;99.90;;;;;;5052576;28;20215;-63
2021/08/22 06:41:05;;;;;;;3.30;3.00;;;19.70;99.90;;;;;;5052854;28;20431;-64
2021/08/22 06:43:31;;;;;;;3.40;2.60;;;19.90;99.90;;;;;;5053059;28;20400;-65
2021/08/22 06:45:56;;;;;;;3.90;3.53;;;20.10;99.90;;;;;;5053394;28;20177;-65
2021/08/22 06:48:22;;;;;;;3.40;2.93;;;20.20;99.90;;;;;;5052405;28;20453;-63
2021/08/22 06:50:48;;;;;;;4.83;2.60;;;20.20;99.90;;;;;;5052885;28;20169;-63
2021/08/22 06:53:14;;;;;;;2.97;2.77;;;20.40;99.90;;;;;;5052823;28;20183;-63
2021/08/22 06:55:41;;;;;;;2.37;2.17;;;20.50;99.90;;;;;;5061788;28;20169;-61
2021/08/22 06:58:07;;;;;;;3.10;2.80;;;20.60;99.90;;;;;;5071452;28;20191;-62
2021/08/22 07:00:33;;;;;;;3.57;2.83;;;20.70;99.90;;;;;;5088851;28;20450;-62
2021/08/22 07:02:59;;;;;;;3.00;2.80;;;20.80;99.90;;;;;;5092325;28;20457;-61
2021/08/22 07:05:25;;;;;;;5.57;3.50;;;20.80;99.90;;;;;;5092973;28;20405;-61
2021/08/22 07:07:51;;;;;;;4.00;3.03;;;20.70;99.90;;;;;;5086102;28;20423;-60
2021/08/22 07:10:17;;;;;;;3.77;3.17;;;20.70;99.90;;;;;;5077139;28;20412;-61
2021/08/22 07:12:43;;;;;;;6.23;2.47;;;20.70;99.90;;;;;;5052485;28;20929;-61
2021/08/22 07:15:11;;;;;;;3.20;2.83;;;20.70;99.90;;;;;;5059105;28;20180;-59
2021/08/22 07:17:36;;;;;;;2.80;2.60;;;20.70;99.90;;;;;;5092949;28;20226;-63
2021/08/22 07:20:03;;;;;;;4.27;2.43;;;20.60;99.90;;;;;;5092725;28;20755;-64
2021/08/22 07:22:28;;;;;;;4.40;3.23;;;20.60;99.90;;;;;;5096116;28;20232;-64
2021/08/22 07:24:54;;;;;;;3.00;2.70;;;20.60;99.90;;;;;;5069974;28;20459;-66
2021/08/22 07:27:20;;;;;;;3.87;3.57;;;20.60;99.90;;;;;;5075773;28;20637;-64
2021/08/22 07:29:46;;;;;;;3.47;2.87;;;20.60;99.90;;;;;;5076049;28;21032;-62
2021/08/22 07:32:11;;;;;;;4.20;3.80;;;20.60;99.90;;;;;;5074452;28;20192;-63
2021/08/22 07:34:38;;;;;;;3.20;2.83;;;20.70;99.90;;;;;;5076151;28;20180;-64
2021/08/22 07:37:04;;;;;;;3.40;3.10;;;20.90;99.90;;;;;;5075683;28;20391;-66
2021/08/22 07:39:30;;;;;;;4.07;3.10;;;21.10;99.90;;;;;;5075651;28;20425;-66
2021/08/22 07:41:55;;;;;;;3.10;2.80;;;21.30;99.90;;;;;;5094453;28;20477;-62
2021/08/22 07:44:21;;;;;;;3.10;2.80;;;21.40;99.90;;;;;;5090501;28;20260;-64
2021/08/22 07:46:48;;;;;;;5.67;3.33;;;21.50;99.90;;;;;;5075786;28;20182;-61
2021/08/22 07:49:15;;;;;;;3.07;2.83;;;21.70;99.90;;;;;;5075717;28;20231;-62
2021/08/22 07:51:41;;;;;;;2.57;2.37;;;21.90;99.90;;;;;;5075779;28;20482;-64
2021/08/22 07:54:06;;;;;;;3.67;2.80;;;22.10;99.90;;;;;;5075587;28;20417;-65
2021/08/22 07:56:32;;;;;;;3.07;2.80;;;22.30;99.90;;;;;;5075272;28;20229;-62
2021/08/22 07:58:57;;;;;;;2.43;2.00;;;22.50;99.90;;;;;;5072144;28;20209;-63
2021/08/22 08:01:23;;;;;;;2.70;2.50;;;22.70;99.90;;;;;;5055708;28;20200;-62
2021/08/22 08:03:49;;;;;;;3.27;3.07;;;22.90;99.90;;;;;;5055437;28;20169;-64
2021/08/22 08:06:14;;;;;;;3.37;3.07;;;23.10;99.90;;;;;;5054962;28;20226;-63
2021/08/22 08:08:40;;;;;;;5.00;3.20;;;23.20;99.90;;;;;;5053224;28;20770;-64
2021/08/22 08:11:05;;;;;;;2.60;2.40;;;23.30;99.90;;;;;;5053941;28;20524;-64
2021/08/22 08:13:31;;;;;;;3.90;3.60;;;23.50;99.90;;;;;;5054031;28;20252;-64
2021/08/22 08:15:57;;;;;;;2.70;2.50;;;23.70;99.90;;;;;;5054076;28;20252;-64
2021/08/22 08:18:22;;;;;;;3.43;2.90;;;23.90;99.90;;;;;;5053587;28;20193;-66
2021/08/22 08:20:48;;;;;;;2.53;2.20;;;24.00;99.90;;;;;;5054001;28;20280;-64
2021/08/22 08:23:14;;;;;;;2.93;2.70;;;24.40;99.90;;;;;;5053884;28;20250;-63
2021/08/22 08:25:39;;;;;;;2.83;2.63;;;24.70;99.90;;;;;;5054650;28;20222;-64
2021/08/22 08:28:05;;;;;;;3.57;3.33;;;25.10;99.90;;;;;;5054462;28;20237;-63
2021/08/22 08:30:31;;;;;;;3.50;3.20;;;25.30;99.90;;;;;;5074657;28;20570;-63
2021/08/22 08:32:57;;;;;;;5.80;2.40;;;25.50;99.90;;;;;;5074861;28;20445;-64
2021/08/22 08:35:22;;;;;;;2.90;2.70;;;25.60;99.90;;;;;;5074941;28;20178;-63
2021/08/22 08:37:48;;;;;;;3.50;3.00;;;25.60;99.90;;;;;;5074537;28;20720;-64
2021/08/22 08:40:17;;;;;;;2.87;2.67;;;25.50;99.90;;;;;;5074693;28;20192;-65
2021/08/22 08:43:00;;;;;;;2.77;2.50;;;25.20;99.90;;;;;;5070019;28;20198;-65
2021/08/22 08:45:49;;;;;;;3.55;3.00;;;24.90;99.90;;;;;;5073126;28;20418;-64
2021/08/22 08:48:19;;;;;;;3.97;3.60;;;25.10;99.90;;;;;;5073008;28;20334;-63
2021/08/22 08:51:35;;;;;;;2.77;2.40;;;25.30;99.90;;;;;;5068698;28;20836;-62
2021/08/22 08:54:15;;;;;;;3.27;2.90;;;25.60;99.90;;;;;;5021292;28;20842;-62
2021/08/22 08:56:47;;;;;;;2.80;2.60;;;26.00;99.90;;;;;;5031045;28;20387;-63
2021/08/22 08:59:13;;;;;;;3.20;2.93;;;25.80;99.90;;;;;;5046803;28;20451;-67
2021/08/22 09:01:39;;;;;;;3.07;2.87;;;25.70;99.90;;;;;;5052152;28;20806;-63
2021/08/22 09:04:12;;;;;;;2.83;2.60;;;25.60;99.90;;;;;;5052496;28;20184;-64
2021/08/22 09:06:49;;;;;;;2.97;2.70;;;25.20;99.90;;;;;;5052735;28;20488;-65
2021/08/22 09:09:54;;;;;;;5.47;3.57;;;25.00;99.90;;;;;;5064241;28;20422;-64
2021/08/22 09:12:47;;;;;;;3.40;2.97;;;24.80;99.90;;;;;;5056865;28;20397;-64
2021/08/22 09:15:50;;;;;;;3.27;3.00;;;24.60;99.90;;;;;;5073343;28;20584;-64
2021/08/22 09:18:46;;;;;;;3.87;3.50;;;24.50;99.90;;;;;;5073506;28;20401;-63
2021/08/22 09:21:37;;;;;;;3.97;3.20;;;24.30;99.90;;;;;;5072320;28;20389;-63
2021/08/22 09:24:24;;;;;;;3.40;3.13;;;24.00;99.90;;;;;;5073604;28;20394;-63
2021/08/22 09:27:27;;;;;;;3.53;3.23;;;23.70;99.90;;;;;;5072046;28;20941;-64
2021/08/22 09:30:38;;;;;;;2.97;2.77;;;23.30;99.90;;;;;;5057200;28;20441;-64
2021/08/22 09:33:41;;;;;;;3.00;2.70;;;22.90;99.90;;;;;;5053810;28;20379;-63
2021/08/22 09:36:26;;;;;;;3.40;3.10;;;22.60;99.90;;;;;;5053619;28;20793;-63
2021/08/22 09:39:30;;;;;;;5.20;2.87;;;22.50;99.90;;;;;;5052899;28;20420;-63
2021/08/22 09:42:05;;;;;;;2.63;2.43;;;22.20;99.90;;;;;;5053464;28;20465;-62
2021/08/22 09:44:43;;;;;;;2.30;2.00;;;22.10;99.90;;;;;;5068377;28;20426;-63
2021/08/22 09:47:45;;;;;;;3.60;3.30;;;21.90;99.90;;;;;;5060985;28;20424;-63
2021/08/22 09:50:44;;;;;;;3.63;3.13;;;21.80;99.90;;;;;;5053444;28;20453;-63
2021/08/22 09:53:31;;;;;;;2.40;2.23;;;21.60;99.90;;;;;;5053307;28;20402;-64
2021/08/22 09:56:28;;;;;;;3.43;3.17;;;21.80;99.90;;;;;;5088291;28;20431;-63
2021/08/22 09:59:08;;;;;;;3.23;2.93;;;21.80;99.90;;;;;;5072049;28;20500;-64
2021/08/22 10:02:01;;;;;;;3.03;2.83;;;21.80;99.90;;;;;;5073231;28;20572;-61
2021/08/22 10:04:41;;;;;;;4.30;3.30;;;21.80;99.90;;;;;;5071955;28;20411;-62
2021/08/22 10:07:34;;;;;;;3.20;2.90;;;21.80;99.90;;;;;;5073089;28;20779;-67
2021/08/22 10:10:25;;;;;;;3.20;2.90;;;21.80;99.90;;;;;;5070381;28;20407;-66
2021/08/22 10:12:51;;;;;;;3.97;3.27;;;21.70;99.90;;;;;;5050379;28;20517;-66
2021/08/22 10:15:19;;;;;;;4.50;3.30;;;21.50;99.90;;;;;;5053223;28;20462;-66
2021/08/22 10:17:48;;;;;;;3.63;2.90;;;21.30;99.90;;;;;;5052379;28;20166;-68
2021/08/22 10:20:15;;;;;;;3.20;2.87;;;21.20;99.90;;;;;;5052849;28;20394;-67
2021/08/22 10:22:41;;;;;;;3.07;2.80;;;21.20;99.90;;;;;;5052491;28;20478;-65
2021/08/22 10:25:13;;;;;;;3.30;3.00;;;21.30;99.90;;;;;;5063281;28;20420;-67
2021/08/22 10:27:45;;;;;;;3.90;3.50;;;21.40;99.90;;;;;;5051234;28;20408;-66
2021/08/22 10:30:31;;;;;;;2.30;2.10;;;21.50;99.90;;;;;;5053075;28;20904;-65
2021/08/22 10:32:56;;;;;;;5.40;3.50;;;21.70;99.90;;;;;;5052335;28;20522;-67
2021/08/22 10:35:25;;;;;;;3.97;2.83;;;21.80;99.90;;;;;;5053123;28;20448;-68
2021/08/22 10:37:51;;;;;;;3.97;3.37;;;21.80;99.90;;;;;;5072581;28;20214;-67
2021/08/22 10:40:26;;;;;;;4.43;3.57;;;21.80;99.90;;;;;;5084196;28;20446;-67
2021/08/22 10:42:57;;;;;;;4.50;2.93;;;21.70;99.90;;;;;;5073076;28;20228;-64
2021/08/22 10:45:50;;;;;;;5.17;4.50;;;21.50;99.90;;;;;;5073076;28;20374;-61
2021/08/22 10:48:21;;;;;;;4.10;3.80;;;21.20;99.90;;;;;;5070433;28;20504;-63
2021/08/22 10:50:59;;;;;;;4.87;3.80;;;20.80;99.90;;;;;;5052920;28;20859;-63
2021/08/22 10:53:30;;;;;;;5.60;4.27;;;20.40;99.90;;;;;;5053348;28;20491;-63
2021/08/22 10:55:57;;;;;;;6.20;4.00;;;20.10;99.90;;;;;;5073115;28;20898;-61
2021/08/22 10:59:01;;;;;;;7.83;4.63;;;19.90;99.90;;;;;;5069736;28;20518;-61
2021/08/22 11:01:28;;;;;;;5.83;4.50;;;19.50;99.90;;;;;;5057748;28;20455;-60
2021/08/22 11:04:00;;;;;;;7.40;4.30;;;19.20;99.90;;;;;;5056323;28;20397;-62
2021/08/22 11:06:25;;;;;;;7.60;4.40;;;19.10;99.90;;;;;;5056402;28;21000;-61
2021/08/22 11:08:51;;;;;;;6.10;4.90;;;19.10;99.90;;;;;;5056008;28;20398;-65
2021/08/22 11:11:17;;;;;;;3.93;3.53;;;19.10;99.90;;;;;;5056523;28;20193;-62
2021/08/22 11:13:55;;;;;;;6.90;4.40;;;19.10;99.90;;;;;;5055247;28;20174;-62
2021/08/22 11:16:39;;;;;;;7.03;4.87;;;19.20;99.90;;;;;;5056492;28;20528;-61
2021/08/22 11:19:05;;;;;;;6.10;4.40;;;19.20;99.90;;;;;;5056448;28;20435;-61
2021/08/22 11:21:31;;;;;;;6.63;4.87;;;19.20;99.90;;;;;;5056316;28;20537;-62
2021/08/22 11:23:58;;;;;;;4.40;4.00;;;19.30;99.90;;;;;;5059677;28;20462;-62
2021/08/22 11:26:24;;;;;;;4.50;3.10;;;19.30;99.90;;;;;;5076269;28;20169;-61
2021/08/22 11:28:54;;;;;;;1.70;1.60;;;19.20;99.90;;;;;;5075727;28;20935;-65
2021/08/22 11:31:20;;;;;;;1.10;1.10;;;19.10;99.90;;;;;;5071447;28;20720;-62
2021/08/22 11:33:46;;;;;;;1.33;1.10;;;19.10;99.90;;;;;;5056305;28;20469;-71
2021/08/22 11:36:11;;;;;;;0.70;0.70;;;18.90;99.90;;;;;;5055711;28;20176;-67
2021/08/22 11:38:37;;;;;;;0.83;0.80;;;18.80;99.90;;;;;;5055439;28;20205;-68
2021/08/22 11:41:03;;;;;;;0.87;0.87;;;18.70;99.90;;;;;;5056116;28;20602;-69
2021/08/22 11:43:31;;;;;;;1.17;1.00;;;18.60;99.90;;;;;;5057649;28;20222;-70
2021/08/22 11:45:56;;;;;;;0.90;0.70;;;18.40;99.90;;;;;;5075394;28;20425;-70
2021/08/22 11:48:24;;;;;;;1.00;0.80;;;18.30;99.90;;;;;;5056305;28;20413;-68
2021/08/22 11:50:51;;;;;;;0.90;0.90;;;18.20;99.90;;;;;;5083025;28;20641;-65
2021/08/22 11:53:18;;;;;;;1.07;1.00;;;18.10;99.90;;;;;;5096092;28;20415;-65
2021/08/22 11:55:45;;;;;;;1.30;1.20;;;18.10;99.90;;;;;;5095740;28;20411;-64
2021/08/22 11:58:13;;;;;;;0.90;0.90;;;18.10;99.90;;;;;;5093914;28;20497;-66
2021/08/22 12:00:47;;;;;;;1.03;0.80;;;18.10;99.90;;;;;;5090539;28;20735;-64
2021/08/22 12:03:15;;;;;;;1.17;1.00;;;18.30;99.90;;;;;;5075204;28;20996;-67
2021/08/22 12:06:01;;;;;;;1.63;1.07;;;18.40;99.90;;;;;;5075225;28;20394;-68
2021/08/22 12:08:28;;;;;;;1.70;1.60;;;18.60;99.90;;;;;;5073030;28;20526;-62
2021/08/22 12:11:10;;;;;;;1.10;1.00;;;18.60;99.90;;;;;;5075344;28;20773;-60
2021/08/22 12:13:46;;;;;;;1.60;1.10;;;18.80;99.90;;;;;;5073910;28;20974;-62
2021/08/22 12:16:32;;;;;;;1.10;1.10;;;18.80;99.90;;;;;;5064162;28;20823;-61
2021/08/22 12:19:18;;;;;;;0.90;0.90;;;19.00;99.90;;;;;;5070667;28;20434;-63
2021/08/22 12:21:43;;;;;;;1.50;1.40;;;19.20;99.90;;;;;;5075143;28;20458;-61
2021/08/22 12:24:22;;;;;;;1.97;1.47;;;19.20;99.90;;;;;;5092828;28;20412;-60
2021/08/22 12:26:59;;;;;;;1.83;1.50;;;19.30;99.90;;;;;;5094361;28;20192;-62
2021/08/22 12:29:35;;;;;;;1.63;1.50;;;19.20;99.90;;;;;;5095131;28;20453;-67
2021/08/22 12:32:08;;;;;;;1.70;1.07;;;19.20;99.90;;;;;;5074578;28;20796;-62
2021/08/22 12:34:33;;;;;;;1.70;1.60;;;19.20;99.90;;;;;;5075025;28;20411;-61
2021/08/22 12:37:08;;;;;;;1.47;1.40;;;19.10;99.90;;;;;;5072962;28;20462;-62
2021/08/22 12:39:34;;;;;;;1.40;1.30;;;19.00;99.90;;;;;;5065828;28;20199;-61
2021/08/22 12:42:00;;;;;;;1.63;1.53;;;18.90;99.90;;;;;;5072094;28;20417;-62
2021/08/22 12:44:28;;;;;;;2.30;2.20;;;18.80;99.90;;;;;;5070073;28;20175;-61
2021/08/22 12:47:02;;;;;;;2.20;2.00;;;18.70;99.90;;;;;;5054373;28;20177;-59
2021/08/22 12:49:29;;;;;;;1.97;1.87;;;18.70;99.90;;;;;;5054627;28;20402;-59
2021/08/22 12:52:00;;;;;;;1.90;1.80;;;18.70;99.90;;;;;;5054690;28;20869;-60
2021/08/22 12:54:28;;;;;;;2.23;2.03;;;18.70;99.90;;;;;;5054448;28;20385;-62
2021/08/22 12:56:55;;;;;;;1.70;1.30;;;18.70;99.90;;;;;;5085346;28;20403;-63
2021/08/22 12:59:21;;;;;;;1.93;1.50;;;18.80;99.90;;;;;;5094885;28;20513;-60
2021/08/22 13:01:48;;;;;;;1.47;1.37;;;18.90;99.90;;;;;;5094083;28;20457;-61